DW8569 Eltingville NY US current weather conditions

sailwx.info

Wind from 278

Air temperature 13.3° C
Dewpoint 12.1° C

Last reported at 2019-Dec-10 09:00 UTC.
Time now 2019-Dec-10 10:09 UTC

Location: N 40°33' W 074°10'.
View on Google Maps.

See reports from other nearby stations

  
Tides and Currents Weather Stations Pressure Air Temp Water Temp Dewpoint Dewpoint Depression Visibility Wind Speed Wind Dir Waves Ship Positions
date/time (UTC)wind fromknots sea level pressurealtimeterstation pressurevisibilityair tempwater tempwave heightnotes
2019-Dec-10 09:00 278 13.3
2019-Dec-10 08:45 257 13.3
2019-Dec-10 08:30 252 13.3
2019-Dec-10 08:15 259 0 gusting 4 13.9
2019-Dec-10 08:00 239 0 gusting 6 13.3
2019-Dec-10 07:45 272 13.9
2019-Dec-10 07:30 253 0 gusting 7 13.9
2019-Dec-10 07:15 202 0 gusting 5 13.3
2019-Dec-10 07:00 248 1 gusting 6 13.3
2019-Dec-10 06:45 232 0 gusting 5 13.3
2019-Dec-10 06:32 273 0 gusting 7 13.3
2019-Dec-10 06:18 258 1 gusting 8 13.3
2019-Dec-10 06:02 224 1 gusting 6 12.8
2019-Dec-10 05:47 161 1 gusting 6 12.8
2019-Dec-10 05:32 249 12.8
2019-Dec-10 05:17 211 0 gusting 6 12.8
2019-Dec-10 05:02 236 12.2
2019-Dec-10 04:47 238 1 gusting 7 12.2
2019-Dec-10 04:31 252 0 gusting 8 12.2
2019-Dec-10 04:17 181 0 gusting 6 12.2
2019-Dec-10 04:01 202 0 gusting 6 12.2
2019-Dec-10 03:47 253 1 gusting 6 12.2
2019-Dec-10 03:31 181 0 gusting 9 12.2
2019-Dec-10 03:16 238 1 gusting 6 12.2
2019-Dec-10 03:01 255 1 gusting 7 12.2
2019-Dec-10 02:46 190 2 gusting 8 11.7
2019-Dec-10 02:31 290 2 gusting 7 11.7
2019-Dec-10 02:16 239 1 gusting 7 11.7
2019-Dec-10 02:01 340 0 gusting 5 11.7
2019-Dec-10 01:46 298 2 gusting 13 11.7
2019-Dec-10 01:30 240 0 gusting 6 11.7
2019-Dec-10 01:16 226 11.1
2019-Dec-10 01:01 237 11.1
2019-Dec-10 00:46 235 11.1
2019-Dec-10 00:31 144 10.6
2019-Dec-10 00:16 144 10.6
2019-Dec-10 00:01 144 10.6
2019-Dec-09 23:45 144 10.6
2019-Dec-09 23:30 144 10.6
2019-Dec-09 23:15 144 10.6
2019-Dec-09 23:00 137 10.6
2019-Dec-09 22:45 175 10.6
2019-Dec-09 22:30 188 10.6
2019-Dec-09 22:15 188 10.6
2019-Dec-09 22:00 192 10.6
2019-Dec-09 21:45 191 10.6
2019-Dec-09 21:30 190 10.6
2019-Dec-09 21:15 190 10.6
2019-Dec-09 21:00 190 10.6
2019-Dec-09 20:45 200 10.6
2019-Dec-09 20:30 200 10.6
2019-Dec-09 20:15 200 10.6
2019-Dec-09 20:00 201 10.6
2019-Dec-09 19:47 263 10.6
2019-Dec-09 19:31 246 10.6
2019-Dec-09 19:16 253 10.6
2019-Dec-09 19:02 251 10.6
2019-Dec-09 18:47 259 10.6
2019-Dec-09 18:33 249 10.6
2019-Dec-09 18:16 254 10.6
2019-Dec-09 18:01 263 1 gusting 6 10.6
2019-Dec-09 17:47 254 10.6
2019-Dec-09 17:16 261 11.1
2019-Dec-09 17:01 261 11.7
2019-Dec-09 16:47 261 11.1
2019-Dec-09 16:31 208 11.1
2019-Dec-09 16:17 257 11.1
2019-Dec-09 16:01 234 9.4
2019-Dec-09 15:46 136 7.8
2019-Dec-09 15:31 136 7.8
2019-Dec-09 15:15 136 7.2
2019-Dec-09 15:00 136 7.2
2019-Dec-09 14:45 136 7.2
2019-Dec-09 14:30 136 7.2
2019-Dec-09 14:15 136 7.2
2019-Dec-09 14:01 136 7.2
2019-Dec-09 13:45 136 6.7
2019-Dec-09 13:30 136 6.1
2019-Dec-09 13:15 136 6.1
2019-Dec-09 13:00 136 6.1
2019-Dec-09 12:47 136 5.6
2019-Dec-09 12:32 136 5.6
2019-Dec-09 12:17 136 5.6
2019-Dec-09 12:02 136 5.6
2019-Dec-09 11:46 136 5.6
2019-Dec-09 11:32 135 5.0
2019-Dec-09 11:17 135 5.0
2019-Dec-09 11:01 135 5.0
2019-Dec-09 10:46 135 4.4
2019-Dec-09 10:31 135 4.4
2019-Dec-09 10:15 135 4.4
2019-Dec-09 10:01 135 4.4
2019-Dec-09 09:45 135 4.4
2019-Dec-09 09:30 135 4.4
2019-Dec-09 09:16 135 4.4
2019-Dec-09 09:01 135 4.4
2019-Dec-09 08:45 135 3.9
2019-Dec-09 08:31 135 3.9
2019-Dec-09 08:16 135 3.9
2019-Dec-09 08:01 135 3.9
2019-Dec-09 07:45 135 3.9
2019-Dec-09 07:30 135 3.9
2019-Dec-09 07:15 135 3.9
2019-Dec-09 07:00 135 3.9
2019-Dec-09 06:45 135 3.9
2019-Dec-09 06:30 135 3.9
2019-Dec-09 06:17 135 3.9
2019-Dec-09 06:01 135 3.9
2019-Dec-09 05:47 135 3.9
2019-Dec-09 05:32 135 3.3
2019-Dec-09 05:17 135 3.3
2019-Dec-09 05:01 135 3.3
2019-Dec-09 04:46 135 3.3
2019-Dec-09 04:31 135 3.3
2019-Dec-09 04:16 135 3.3
2019-Dec-09 04:01 135 3.3
2019-Dec-09 03:46 135 3.3
2019-Dec-09 03:31 135 3.3
2019-Dec-09 03:16 135 2.8
2019-Dec-09 03:01 135 2.2
2019-Dec-09 02:45 135 1.7
2019-Dec-09 02:30 135 1.7
2019-Dec-09 02:16 135 1.7
2019-Dec-09 02:00 135 1.7
2019-Dec-09 01:46 135 1.7
2019-Dec-09 01:31 135 2.2
2019-Dec-09 01:16 135 2.2
2019-Dec-09 01:00 135 2.8
2019-Dec-09 00:45 134 2.8
2019-Dec-09 00:30 134 2.8
2019-Dec-09 00:15 134 3.3
2019-Dec-09 00:00 134 3.3
2019-Dec-08 23:45 134 3.3
2019-Dec-08 23:30 134 3.3
2019-Dec-08 23:15 134 3.3
2019-Dec-08 23:00 134 3.3
2019-Dec-08 22:45 134 3.9
2019-Dec-08 22:30 134 3.9
2019-Dec-08 22:15 156 3.9
2019-Dec-08 21:46 109 4.4
2019-Dec-08 21:31 141 4.4
2019-Dec-08 21:17 192 0 gusting 3 5.0
2019-Dec-08 21:01 177 5.0
2019-Dec-08 20:47
2019-Dec-08 16:45 180 3.9
2019-Dec-08 16:30 169 0 gusting 3 3.9
2019-Dec-08 16:15 142 3.9
2019-Dec-08 16:00 144 3.3
2019-Dec-08 15:45 149 2.8
2019-Dec-08 15:31 286 2.2
2019-Dec-08 15:17 288 1.7
2019-Dec-08 15:01 288 1.1
2019-Dec-08 14:46 290 0.6
2019-Dec-08 14:31 294 -0.6
2019-Dec-08 14:16 294 -1.7
2019-Dec-08 14:01 294 -2.2
2019-Dec-08 13:46 294 -2.8
2019-Dec-08 13:30 294 -2.8
2019-Dec-08 13:16 294 -3.3
2019-Dec-08 13:01 294 -3.9
2019-Dec-08 12:45 293 -3.9
2019-Dec-08 12:30 293 -4.4
2019-Dec-08 12:15 293 -4.4
2019-Dec-08 12:00 293 -4.4
2019-Dec-08 11:45 293 -4.4
2019-Dec-08 11:30 293 -4.4
2019-Dec-08 11:15 293 -4.4
2019-Dec-08 11:00 293 -4.4
2019-Dec-08 10:45 293 -4.4
2019-Dec-08 10:30 293 -4.4
2019-Dec-08 10:15 293 -4.4
2019-Dec-08 10:00 293 -4.4